sensor_id;sensor_type;location;lat;lon;timestamp;temperature;humidity
32097;DHT22;18610;49.916;8.284;2024-02-28T00:00:04;5.70;99.90
32097;DHT22;18610;49.916;8.284;2024-02-28T00:02:31;5.70;99.90
32097;DHT22;18610;49.916;8.284;2024-02-28T00:04:58;5.60;99.90
32097;DHT22;18610;49.916;8.284;2024-02-28T00:07:25;5.60;99.90
32097;DHT22;18610;49.916;8.284;2024-02-28T00:09:52;5.60;99.90
32097;DHT22;18610;49.916;8.284;2024-02-28T00:12:24;5.60;99.90
32097;DHT22;18610;49.916;8.284;2024-02-28T00:14:51;5.70;99.90
32097;DHT22;18610;49.916;8.284;2024-02-28T00:17:18;5.60;99.90
32097;DHT22;18610;49.916;8.284;2024-02-28T00:19:44;5.60;99.90
32097;DHT22;18610;49.916;8.284;2024-02-28T00:22:11;5.60;99.90
32097;DHT22;18610;49.916;8.284;2024-02-28T00:24:38;5.50;99.90
32097;DHT22;18610;49.916;8.284;2024-02-28T00:27:04;5.50;99.90
32097;DHT22;18610;49.916;8.284;2024-02-28T00:29:32;5.50;99.90
32097;DHT22;18610;49.916;8.284;2024-02-28T00:31:59;5.50;99.90
32097;DHT22;18610;49.916;8.284;2024-02-28T00:34:26;5.50;99.90
32097;DHT22;18610;49.916;8.284;2024-02-28T00:36:52;5.50;99.90
32097;DHT22;18610;49.916;8.284;2024-02-28T00:39:19;5.40;99.90
32097;DHT22;18610;49.916;8.284;2024-02-28T00:41:46;5.40;99.90
32097;DHT22;18610;49.916;8.284;2024-02-28T00:44:12;5.40;99.90
32097;DHT22;18610;49.916;8.284;2024-02-28T00:46:40;5.40;99.90
32097;DHT22;18610;49.916;8.284;2024-02-28T00:49:07;5.40;99.90
32097;DHT22;18610;49.916;8.284;2024-02-28T00:51:33;5.40;99.90
32097;DHT22;18610;49.916;8.284;2024-02-28T00:54:02;5.40;99.90
32097;DHT22;18610;49.916;8.284;2024-02-28T00:56:28;5.30;99.90
32097;DHT22;18610;49.916;8.284;2024-02-28T00:58:55;5.30;99.90
32097;DHT22;18610;49.916;8.284;2024-02-28T01:01:22;5.20;99.90
32097;DHT22;18610;49.916;8.284;2024-02-28T01:03:50;5.20;99.90
32097;DHT22;18610;49.916;8.284;2024-02-28T01:06:17;5.20;99.90
32097;DHT22;18610;49.916;8.284;2024-02-28T01:08:44;5.20;99.90
32097;DHT22;18610;49.916;8.284;2024-02-28T01:11:10;5.30;99.90
32097;DHT22;18610;49.916;8.284;2024-02-28T01:13:37;5.30;99.90
32097;DHT22;18610;49.916;8.284;2024-02-28T01:16:04;5.30;99.90
32097;DHT22;18610;49.916;8.284;2024-02-28T01:18:31;5.30;99.90
32097;DHT22;18610;49.916;8.284;2024-02-28T01:20:59;5.30;99.90
32097;DHT22;18610;49.916;8.284;2024-02-28T01:23:25;5.40;99.90
32097;DHT22;18610;49.916;8.284;2024-02-28T01:25:52;5.40;99.90
32097;DHT22;18610;49.916;8.284;2024-02-28T01:28:19;5.40;99.90
32097;DHT22;18610;49.916;8.284;2024-02-28T01:30:45;5.40;99.90
32097;DHT22;18610;49.916;8.284;2024-02-28T01:33:12;5.40;99.90
32097;DHT22;18610;49.916;8.284;2024-02-28T01:35:40;5.30;99.90
32097;DHT22;18610;49.916;8.284;2024-02-28T01:38:08;5.30;99.90
32097;DHT22;18610;49.916;8.284;2024-02-28T01:40:34;5.30;99.90
32097;DHT22;18610;49.916;8.284;2024-02-28T01:43:04;5.20;99.90
32097;DHT22;18610;49.916;8.284;2024-02-28T01:45:33;5.20;99.90
32097;DHT22;18610;49.916;8.284;2024-02-28T01:48:01;5.20;99.90
32097;DHT22;18610;49.916;8.284;2024-02-28T01:50:28;5.20;99.90
32097;DHT22;18610;49.916;8.284;2024-02-28T01:52:55;5.20;99.90
32097;DHT22;18610;49.916;8.284;2024-02-28T01:55:23;5.20;99.90
32097;DHT22;18610;49.916;8.284;2024-02-28T01:57:49;5.10;99.90
32097;DHT22;18610;49.916;8.284;2024-02-28T02:00:17;5.20;99.90
32097;DHT22;18610;49.916;8.284;2024-02-28T02:02:45;5.10;99.90
32097;DHT22;18610;49.916;8.284;2024-02-28T02:05:11;5.10;99.90
32097;DHT22;18610;49.916;8.284;2024-02-28T02:07:41;5.10;99.90
32097;DHT22;18610;49.916;8.284;2024-02-28T02:10:08;5.10;99.90
32097;DHT22;18610;49.916;8.284;2024-02-28T02:12:38;5.10;99.90
32097;DHT22;18610;49.916;8.284;2024-02-28T02:15:06;5.10;99.90
32097;DHT22;18610;49.916;8.284;2024-02-28T02:17:32;5.10;99.90
32097;DHT22;18610;49.916;8.284;2024-02-28T02:19:59;5.10;99.90
32097;DHT22;18610;49.916;8.284;2024-02-28T02:24:54;5.00;99.90
32097;DHT22;18610;49.916;8.284;2024-02-28T02:27:24;5.00;99.90
32097;DHT22;18610;49.916;8.284;2024-02-28T02:29:51;4.90;99.90
32097;DHT22;18610;49.916;8.284;2024-02-28T02:32:18;4.80;99.90
32097;DHT22;18610;49.916;8.284;2024-02-28T02:34:45;4.80;99.90
32097;DHT22;18610;49.916;8.284;2024-02-28T02:37:12;4.70;99.90
32097;DHT22;18610;49.916;8.284;2024-02-28T02:39:38;4.70;99.90
32097;DHT22;18610;49.916;8.284;2024-02-28T02:42:06;4.70;99.90
32097;DHT22;18610;49.916;8.284;2024-02-28T02:44:33;4.70;99.90
32097;DHT22;18610;49.916;8.284;2024-02-28T02:47:00;4.70;99.90
32097;DHT22;18610;49.916;8.284;2024-02-28T02:49:27;4.60;99.90
32097;DHT22;18610;49.916;8.284;2024-02-28T02:51:53;4.60;99.90
32097;DHT22;18610;49.916;8.284;2024-02-28T02:54:21;4.60;99.90
32097;DHT22;18610;49.916;8.284;2024-02-28T02:56:48;4.50;99.90
32097;DHT22;18610;49.916;8.284;2024-02-28T02:59:16;4.40;99.90
32097;DHT22;18610;49.916;8.284;2024-02-28T03:01:42;4.30;99.90
32097;DHT22;18610;49.916;8.284;2024-02-28T03:04:09;4.20;99.90
32097;DHT22;18610;49.916;8.284;2024-02-28T03:06:35;4.20;99.90
32097;DHT22;18610;49.916;8.284;2024-02-28T03:09:02;4.10;99.90
32097;DHT22;18610;49.916;8.284;2024-02-28T03:11:29;4.10;99.90
32097;DHT22;18610;49.916;8.284;2024-02-28T03:13:56;4.00;99.90
32097;DHT22;18610;49.916;8.284;2024-02-28T03:16:24;4.00;99.90
32097;DHT22;18610;49.916;8.284;2024-02-28T03:18:51;4.00;99.90
32097;DHT22;18610;49.916;8.284;2024-02-28T03:21:17;3.80;99.90
32097;DHT22;18610;49.916;8.284;2024-02-28T03:23:46;3.80;99.90
32097;DHT22;18610;49.916;8.284;2024-02-28T03:26:12;3.80;99.90
32097;DHT22;18610;49.916;8.284;2024-02-28T03:28:39;3.70;99.90
32097;DHT22;18610;49.916;8.284;2024-02-28T03:31:05;3.70;99.90
32097;DHT22;18610;49.916;8.284;2024-02-28T03:33:34;3.70;99.90
32097;DHT22;18610;49.916;8.284;2024-02-28T03:36:01;3.60;99.90
32097;DHT22;18610;49.916;8.284;2024-02-28T03:38:27;3.60;99.90
32097;DHT22;18610;49.916;8.284;2024-02-28T03:40:54;3.60;99.90
32097;DHT22;18610;49.916;8.284;2024-02-28T03:43:21;3.60;99.90
32097;DHT22;18610;49.916;8.284;2024-02-28T03:45:47;3.50;99.90
32097;DHT22;18610;49.916;8.284;2024-02-28T03:48:15;3.60;99.90
32097;DHT22;18610;49.916;8.284;2024-02-28T03:50:43;3.60;99.90
32097;DHT22;18610;49.916;8.284;2024-02-28T03:53:10;3.60;99.90
32097;DHT22;18610;49.916;8.284;2024-02-28T03:55:37;3.50;99.90
32097;DHT22;18610;49.916;8.284;2024-02-28T03:58:04;3.50;99.90
32097;DHT22;18610;49.916;8.284;2024-02-28T04:00:34;3.40;99.90
32097;DHT22;18610;49.916;8.284;2024-02-28T04:03:00;3.40;99.90
32097;DHT22;18610;49.916;8.284;2024-02-28T04:05:28;3.30;99.90
32097;DHT22;18610;49.916;8.284;2024-02-28T04:07:56;3.40;99.90
32097;DHT22;18610;49.916;8.284;2024-02-28T04:10:23;3.30;99.90
32097;DHT22;18610;49.916;8.284;2024-02-28T04:12:50;3.40;99.90
32097;DHT22;18610;49.916;8.284;2024-02-28T04:15:16;3.40;99.90
32097;DHT22;18610;49.916;8.284;2024-02-28T04:17:43;3.40;99.90
32097;DHT22;18610;49.916;8.284;2024-02-28T04:20:10;3.40;99.90
32097;DHT22;18610;49.916;8.284;2024-02-28T04:22:37;3.40;99.90
32097;DHT22;18610;49.916;8.284;2024-02-28T04:25:07;3.40;99.90
32097;DHT22;18610;49.916;8.284;2024-02-28T04:27:34;3.30;99.90
32097;DHT22;18610;49.916;8.284;2024-02-28T04:30:00;3.30;99.90
32097;DHT22;18610;49.916;8.284;2024-02-28T04:32:27;3.40;99.90
32097;DHT22;18610;49.916;8.284;2024-02-28T04:34:54;3.40;99.90
32097;DHT22;18610;49.916;8.284;2024-02-28T04:37:21;3.50;99.90
32097;DHT22;18610;49.916;8.284;2024-02-28T04:39:47;3.50;99.90
32097;DHT22;18610;49.916;8.284;2024-02-28T04:42:16;3.60;99.90
32097;DHT22;18610;49.916;8.284;2024-02-28T04:44:42;3.70;99.90
32097;DHT22;18610;49.916;8.284;2024-02-28T04:47:09;3.70;99.90
32097;DHT22;18610;49.916;8.284;2024-02-28T04:49:37;3.70;99.90
32097;DHT22;18610;49.916;8.284;2024-02-28T04:52:04;3.70;99.90
32097;DHT22;18610;49.916;8.284;2024-02-28T04:54:32;3.60;99.90
32097;DHT22;18610;49.916;8.284;2024-02-28T04:56:58;3.60;99.90
32097;DHT22;18610;49.916;8.284;2024-02-28T04:59:26;3.70;99.90
32097;DHT22;18610;49.916;8.284;2024-02-28T05:01:53;3.70;99.90
32097;DHT22;18610;49.916;8.284;2024-02-28T05:04:20;3.70;99.90
32097;DHT22;18610;49.916;8.284;2024-02-28T05:06:47;3.70;99.90
32097;DHT22;18610;49.916;8.284;2024-02-28T05:09:14;3.80;99.90
32097;DHT22;18610;49.916;8.284;2024-02-28T05:11:40;3.70;99.90
32097;DHT22;18610;49.916;8.284;2024-02-28T05:14:08;3.60;99.90
32097;DHT22;18610;49.916;8.284;2024-02-28T05:16:37;3.60;99.90
32097;DHT22;18610;49.916;8.284;2024-02-28T05:19:03;3.50;99.90
32097;DHT22;18610;49.916;8.284;2024-02-28T05:21:30;3.50;99.90
32097;DHT22;18610;49.916;8.284;2024-02-28T05:23:57;3.40;99.90
32097;DHT22;18610;49.916;8.284;2024-02-28T05:26:24;3.40;99.90
32097;DHT22;18610;49.916;8.284;2024-02-28T05:28:50;3.40;99.90
32097;DHT22;18610;49.916;8.284;2024-02-28T05:31:21;3.30;99.90
32097;DHT22;18610;49.916;8.284;2024-02-28T05:33:50;3.30;99.90
32097;DHT22;18610;49.916;8.284;2024-02-28T05:36:17;3.20;99.90
32097;DHT22;18610;49.916;8.284;2024-02-28T05:38:44;3.20;99.90
32097;DHT22;18610;49.916;8.284;2024-02-28T05:41:11;3.10;99.90
32097;DHT22;18610;49.916;8.284;2024-02-28T05:43:38;3.10;99.90
32097;DHT22;18610;49.916;8.284;2024-02-28T05:46:07;3.00;99.90
32097;DHT22;18610;49.916;8.284;2024-02-28T05:48:33;3.00;99.90
32097;DHT22;18610;49.916;8.284;2024-02-28T05:51:02;3.00;99.90
32097;DHT22;18610;49.916;8.284;2024-02-28T05:53:29;3.00;99.90
32097;DHT22;18610;49.916;8.284;2024-02-28T05:55:58;3.00;99.90
32097;DHT22;18610;49.916;8.284;2024-02-28T05:58:24;3.00;99.90
32097;DHT22;18610;49.916;8.284;2024-02-28T06:00:51;2.90;99.90
32097;DHT22;18610;49.916;8.284;2024-02-28T06:03:18;2.90;99.90
32097;DHT22;18610;49.916;8.284;2024-02-28T06:05:45;2.90;99.90
32097;DHT22;18610;49.916;8.284;2024-02-28T06:08:13;2.80;99.90
32097;DHT22;18610;49.916;8.284;2024-02-28T06:10:40;2.80;99.90
32097;DHT22;18610;49.916;8.284;2024-02-28T06:13:07;2.70;99.90
32097;DHT22;18610;49.916;8.284;2024-02-28T06:15:34;2.70;99.90
32097;DHT22;18610;49.916;8.284;2024-02-28T06:18:01;2.70;99.90
32097;DHT22;18610;49.916;8.284;2024-02-28T06:20:27;2.70;99.90
32097;DHT22;18610;49.916;8.284;2024-02-28T06:22:54;2.70;99.90
32097;DHT22;18610;49.916;8.284;2024-02-28T06:25:22;2.70;99.90
32097;DHT22;18610;49.916;8.284;2024-02-28T06:27:50;2.70;99.90
32097;DHT22;18610;49.916;8.284;2024-02-28T06:30:17;2.70;99.90
32097;DHT22;18610;49.916;8.284;2024-02-28T06:32:44;2.70;99.90
32097;DHT22;18610;49.916;8.284;2024-02-28T06:35:10;2.80;99.90
32097;DHT22;18610;49.916;8.284;2024-02-28T06:37:37;2.80;99.90
32097;DHT22;18610;49.916;8.284;2024-02-28T06:40:05;2.80;99.90
32097;DHT22;18610;49.916;8.284;2024-02-28T06:42:35;2.90;99.90
32097;DHT22;18610;49.916;8.284;2024-02-28T06:45:02;2.90;99.90
32097;DHT22;18610;49.916;8.284;2024-02-28T06:47:30;2.90;99.90
32097;DHT22;18610;49.916;8.284;2024-02-28T06:49:58;2.90;99.90
32097;DHT22;18610;49.916;8.284;2024-02-28T06:52:24;2.90;99.90
32097;DHT22;18610;49.916;8.284;2024-02-28T06:54:51;2.90;99.90
32097;DHT22;18610;49.916;8.284;2024-02-28T06:57:18;3.00;99.90
32097;DHT22;18610;49.916;8.284;2024-02-28T06:59:48;3.00;99.90
32097;DHT22;18610;49.916;8.284;2024-02-28T07:02:15;3.10;99.90
32097;DHT22;18610;49.916;8.284;2024-02-28T07:04:42;3.20;99.90
32097;DHT22;18610;49.916;8.284;2024-02-28T07:07:08;3.20;99.90
32097;DHT22;18610;49.916;8.284;2024-02-28T07:09:38;3.30;99.90
32097;DHT22;18610;49.916;8.284;2024-02-28T07:12:06;3.30;99.90
32097;DHT22;18610;49.916;8.284;2024-02-28T07:14:32;3.40;99.90
32097;DHT22;18610;49.916;8.284;2024-02-28T07:17:00;3.40;99.90
32097;DHT22;18610;49.916;8.284;2024-02-28T07:19:28;3.40;99.90
32097;DHT22;18610;49.916;8.284;2024-02-28T07:21:54;3.50;99.90
32097;DHT22;18610;49.916;8.284;2024-02-28T07:24:21;3.50;99.90
32097;DHT22;18610;49.916;8.284;2024-02-28T07:26:47;3.60;99.90
32097;DHT22;18610;49.916;8.284;2024-02-28T07:29:15;3.70;99.90
32097;DHT22;18610;49.916;8.284;2024-02-28T07:31:42;3.80;99.90
32097;DHT22;18610;49.916;8.284;2024-02-28T07:34:12;3.90;99.90
32097;DHT22;18610;49.916;8.284;2024-02-28T07:36:39;4.00;99.90
32097;DHT22;18610;49.916;8.284;2024-02-28T07:39:05;4.10;99.90
32097;DHT22;18610;49.916;8.284;2024-02-28T07:41:32;4.30;99.90
32097;DHT22;18610;49.916;8.284;2024-02-28T07:43:59;4.40;99.90
32097;DHT22;18610;49.916;8.284;2024-02-28T07:46:26;4.50;99.90
32097;DHT22;18610;49.916;8.284;2024-02-28T07:48:53;4.50;99.90
32097;DHT22;18610;49.916;8.284;2024-02-28T07:51:21;4.60;99.90
32097;DHT22;18610;49.916;8.284;2024-02-28T07:53:48;4.60;99.90
32097;DHT22;18610;49.916;8.284;2024-02-28T07:56:17;4.60;99.90
32097;DHT22;18610;49.916;8.284;2024-02-28T07:58:44;4.70;99.90
32097;DHT22;18610;49.916;8.284;2024-02-28T08:01:11;4.70;99.90
32097;DHT22;18610;49.916;8.284;2024-02-28T08:03:40;4.70;99.90
32097;DHT22;18610;49.916;8.284;2024-02-28T08:06:07;4.80;99.90
32097;DHT22;18610;49.916;8.284;2024-02-28T08:08:35;4.80;99.90
32097;DHT22;18610;49.916;8.284;2024-02-28T08:11:02;4.90;99.90
32097;DHT22;18610;49.916;8.284;2024-02-28T08:13:29;5.10;99.90
32097;DHT22;18610;49.916;8.284;2024-02-28T08:15:58;5.30;99.90
32097;DHT22;18610;49.916;8.284;2024-02-28T08:18:25;5.40;99.90
32097;DHT22;18610;49.916;8.284;2024-02-28T08:20:52;5.60;99.90
32097;DHT22;18610;49.916;8.284;2024-02-28T08:23:18;5.80;99.90
32097;DHT22;18610;49.916;8.284;2024-02-28T08:25:46;6.00;99.90
32097;DHT22;18610;49.916;8.284;2024-02-28T08:28:13;6.20;99.90
32097;DHT22;18610;49.916;8.284;2024-02-28T08:30:40;6.40;99.90
32097;DHT22;18610;49.916;8.284;2024-02-28T08:33:06;6.70;99.90
32097;DHT22;18610;49.916;8.284;2024-02-28T08:35:34;6.80;99.90
32097;DHT22;18610;49.916;8.284;2024-02-28T08:38:01;7.00;99.90
32097;DHT22;18610;49.916;8.284;2024-02-28T08:40:28;7.30;99.90
32097;DHT22;18610;49.916;8.284;2024-02-28T08:42:56;7.50;99.90
32097;DHT22;18610;49.916;8.284;2024-02-28T08:45:23;7.70;99.90
32097;DHT22;18610;49.916;8.284;2024-02-28T08:47:50;7.90;99.90
32097;DHT22;18610;49.916;8.284;2024-02-28T08:50:17;8.10;99.90
32097;DHT22;18610;49.916;8.284;2024-02-28T08:52:44;8.20;99.90
32097;DHT22;18610;49.916;8.284;2024-02-28T08:55:11;8.40;99.90
32097;DHT22;18610;49.916;8.284;2024-02-28T08:57:38;8.60;99.90
32097;DHT22;18610;49.916;8.284;2024-02-28T09:00:07;8.70;99.90
32097;DHT22;18610;49.916;8.284;2024-02-28T09:02:34;8.70;99.90
32097;DHT22;18610;49.916;8.284;2024-02-28T09:05:02;8.90;99.90
32097;DHT22;18610;49.916;8.284;2024-02-28T09:07:29;8.90;99.90
32097;DHT22;18610;49.916;8.284;2024-02-28T09:09:56;8.90;99.90
32097;DHT22;18610;49.916;8.284;2024-02-28T09:12:22;9.10;99.90
32097;DHT22;18610;49.916;8.284;2024-02-28T09:14:49;9.30;99.90
32097;DHT22;18610;49.916;8.284;2024-02-28T09:17:23;9.50;99.90
32097;DHT22;18610;49.916;8.284;2024-02-28T09:19:50;9.60;99.90
32097;DHT22;18610;49.916;8.284;2024-02-28T09:22:17;9.70;99.90
32097;DHT22;18610;49.916;8.284;2024-02-28T09:24:43;9.60;99.90
32097;DHT22;18610;49.916;8.284;2024-02-28T09:27:10;9.60;99.90
32097;DHT22;18610;49.916;8.284;2024-02-28T09:29:37;9.60;99.90
32097;DHT22;18610;49.916;8.284;2024-02-28T09:32:04;9.60;99.90
32097;DHT22;18610;49.916;8.284;2024-02-28T09:34:32;9.60;99.90
32097;DHT22;18610;49.916;8.284;2024-02-28T09:36:59;9.70;99.90
32097;DHT22;18610;49.916;8.284;2024-02-28T09:39:26;9.80;99.90
32097;DHT22;18610;49.916;8.284;2024-02-28T09:41:52;10.20;99.90
32097;DHT22;18610;49.916;8.284;2024-02-28T09:44:20;10.40;99.90
32097;DHT22;18610;49.916;8.284;2024-02-28T09:46:50;10.60;99.90
32097;DHT22;18610;49.916;8.284;2024-02-28T09:49:18;10.90;99.90
32097;DHT22;18610;49.916;8.284;2024-02-28T09:51:48;11.00;99.90
32097;DHT22;18610;49.916;8.284;2024-02-28T09:54:16;11.30;99.90
32097;DHT22;18610;49.916;8.284;2024-02-28T09:56:42;11.40;99.90
32097;DHT22;18610;49.916;8.284;2024-02-28T09:59:10;11.50;99.90
32097;DHT22;18610;49.916;8.284;2024-02-28T10:01:42;11.80;99.90
32097;DHT22;18610;49.916;8.284;2024-02-28T10:04:09;12.00;99.90
32097;DHT22;18610;49.916;8.284;2024-02-28T10:06:38;12.20;99.90
32097;DHT22;18610;49.916;8.284;2024-02-28T10:09:06;12.40;99.90
32097;DHT22;18610;49.916;8.284;2024-02-28T10:11:33;12.70;99.60
32097;DHT22;18610;49.916;8.284;2024-02-28T10:14:01;12.90;98.80
32097;DHT22;18610;49.916;8.284;2024-02-28T10:16:27;13.10;97.90
32097;DHT22;18610;49.916;8.284;2024-02-28T10:18:55;13.30;98.10
32097;DHT22;18610;49.916;8.284;2024-02-28T10:21:22;13.50;96.60
32097;DHT22;18610;49.916;8.284;2024-02-28T10:23:49;13.60;96.80
32097;DHT22;18610;49.916;8.284;2024-02-28T10:26:17;13.60;96.50
32097;DHT22;18610;49.916;8.284;2024-02-28T10:28:44;13.60;96.30
32097;DHT22;18610;49.916;8.284;2024-02-28T10:31:11;13.80;96.90
32097;DHT22;18610;49.916;8.284;2024-02-28T10:33:37;14.00;94.90
32097;DHT22;18610;49.916;8.284;2024-02-28T10:36:05;14.10;95.00
32097;DHT22;18610;49.916;8.284;2024-02-28T10:38:32;14.30;94.30
32097;DHT22;18610;49.916;8.284;2024-02-28T10:40:59;14.50;94.70
32097;DHT22;18610;49.916;8.284;2024-02-28T10:43:28;14.70;93.50
32097;DHT22;18610;49.916;8.284;2024-02-28T10:45:57;14.80;93.10
32097;DHT22;18610;49.916;8.284;2024-02-28T10:48:24;14.80;92.20
32097;DHT22;18610;49.916;8.284;2024-02-28T10:50:51;14.80;91.70
32097;DHT22;18610;49.916;8.284;2024-02-28T10:53:22;14.90;92.30
32097;DHT22;18610;49.916;8.284;2024-02-28T10:55:49;15.20;92.70
32097;DHT22;18610;49.916;8.284;2024-02-28T10:58:17;15.50;91.80
32097;DHT22;18610;49.916;8.284;2024-02-28T11:00:46;15.90;89.90
32097;DHT22;18610;49.916;8.284;2024-02-28T11:03:16;16.10;88.60
32097;DHT22;18610;49.916;8.284;2024-02-28T11:05:44;16.30;87.70
32097;DHT22;18610;49.916;8.284;2024-02-28T11:08:20;16.60;86.70
32097;DHT22;18610;49.916;8.284;2024-02-28T11:10:54;16.90;84.80
32097;DHT22;18610;49.916;8.284;2024-02-28T11:13:22;17.00;82.50
32097;DHT22;18610;49.916;8.284;2024-02-28T11:15:50;16.90;81.30
32097;DHT22;18610;49.916;8.284;2024-02-28T11:18:18;16.70;82.60
32097;DHT22;18610;49.916;8.284;2024-02-28T11:20:45;16.80;81.90
32097;DHT22;18610;49.916;8.284;2024-02-28T11:23:14;17.00;81.30
32097;DHT22;18610;49.916;8.284;2024-02-28T11:25:41;17.20;79.90
32097;DHT22;18610;49.916;8.284;2024-02-28T11:28:08;17.40;79.10
32097;DHT22;18610;49.916;8.284;2024-02-28T11:30:35;17.30;77.40
32097;DHT22;18610;49.916;8.284;2024-02-28T11:33:04;17.10;77.20
32097;DHT22;18610;49.916;8.284;2024-02-28T11:35:32;16.90;78.60
32097;DHT22;18610;49.916;8.284;2024-02-28T11:37:59;16.90;78.30
32097;DHT22;18610;49.916;8.284;2024-02-28T11:40:25;17.10;76.70
32097;DHT22;18610;49.916;8.284;2024-02-28T11:42:53;17.00;76.00
32097;DHT22;18610;49.916;8.284;2024-02-28T11:45:20;17.00;75.70
32097;DHT22;18610;49.916;8.284;2024-02-28T11:47:47;17.20;75.10
32097;DHT22;18610;49.916;8.284;2024-02-28T11:50:15;17.30;73.70
32097;DHT22;18610;49.916;8.284;2024-02-28T11:52:43;17.10;74.70
32097;DHT22;18610;49.916;8.284;2024-02-28T11:55:10;17.00;76.00
32097;DHT22;18610;49.916;8.284;2024-02-28T11:57:37;17.10;77.50
32097;DHT22;18610;49.916;8.284;2024-02-28T12:00:05;17.10;76.10
32097;DHT22;18610;49.916;8.284;2024-02-28T12:02:32;17.30;75.80
32097;DHT22;18610;49.916;8.284;2024-02-28T12:05:02;17.50;74.30
32097;DHT22;18610;49.916;8.284;2024-02-28T12:07:31;17.80;73.80
32097;DHT22;18610;49.916;8.284;2024-02-28T12:09:59;18.10;73.40
32097;DHT22;18610;49.916;8.284;2024-02-28T12:12:27;18.20;72.20
32097;DHT22;18610;49.916;8.284;2024-02-28T12:14:58;18.30;72.50
32097;DHT22;18610;49.916;8.284;2024-02-28T12:17:25;18.50;68.20
32097;DHT22;18610;49.916;8.284;2024-02-28T12:19:52;18.60;68.50
32097;DHT22;18610;49.916;8.284;2024-02-28T12:22:18;18.60;67.60
32097;DHT22;18610;49.916;8.284;2024-02-28T12:24:46;18.60;67.70
32097;DHT22;18610;49.916;8.284;2024-02-28T12:27:13;18.70;67.80
32097;DHT22;18610;49.916;8.284;2024-02-28T12:29:40;19.00;67.40
32097;DHT22;18610;49.916;8.284;2024-02-28T12:32:07;19.20;65.70
32097;DHT22;18610;49.916;8.284;2024-02-28T12:34:34;19.60;64.80
32097;DHT22;18610;49.916;8.284;2024-02-28T12:37:01;19.80;63.10
32097;DHT22;18610;49.916;8.284;2024-02-28T12:39:29;19.80;62.70
32097;DHT22;18610;49.916;8.284;2024-02-28T12:41:57;19.80;64.20
32097;DHT22;18610;49.916;8.284;2024-02-28T12:44:24;20.10;64.10
32097;DHT22;18610;49.916;8.284;2024-02-28T12:46:51;20.40;61.50
32097;DHT22;18610;49.916;8.284;2024-02-28T12:49:18;20.50;59.50
32097;DHT22;18610;49.916;8.284;2024-02-28T12:51:45;20.30;58.20
32097;DHT22;18610;49.916;8.284;2024-02-28T12:54:14;20.30;57.80
32097;DHT22;18610;49.916;8.284;2024-02-28T12:56:41;20.10;58.30
32097;DHT22;18610;49.916;8.284;2024-02-28T12:59:10;19.90;58.30
32097;DHT22;18610;49.916;8.284;2024-02-28T13:01:37;19.90;58.40
32097;DHT22;18610;49.916;8.284;2024-02-28T13:04:04;19.50;59.80
32097;DHT22;18610;49.916;8.284;2024-02-28T13:06:31;19.00;59.80
32097;DHT22;18610;49.916;8.284;2024-02-28T13:08:58;19.00;59.90
32097;DHT22;18610;49.916;8.284;2024-02-28T13:11:24;18.90;60.60
32097;DHT22;18610;49.916;8.284;2024-02-28T13:13:52;18.90;60.60
32097;DHT22;18610;49.916;8.284;2024-02-28T13:16:20;18.90;60.80
32097;DHT22;18610;49.916;8.284;2024-02-28T13:18:48;18.90;60.30
32097;DHT22;18610;49.916;8.284;2024-02-28T13:21:14;18.60;60.50
32097;DHT22;18610;49.916;8.284;2024-02-28T13:23:41;18.30;61.10
32097;DHT22;18610;49.916;8.284;2024-02-28T13:26:08;18.40;62.10
32097;DHT22;18610;49.916;8.284;2024-02-28T13:28:35;18.50;61.80
32097;DHT22;18610;49.916;8.284;2024-02-28T13:31:03;18.60;60.60
32097;DHT22;18610;49.916;8.284;2024-02-28T13:33:31;18.60;60.30
32097;DHT22;18610;49.916;8.284;2024-02-28T13:35:58;18.50;60.70
32097;DHT22;18610;49.916;8.284;2024-02-28T13:38:25;18.50;60.70
32097;DHT22;18610;49.916;8.284;2024-02-28T13:40:51;18.50;61.70
32097;DHT22;18610;49.916;8.284;2024-02-28T13:43:18;18.50;59.90
32097;DHT22;18610;49.916;8.284;2024-02-28T13:45:46;18.50;61.10
32097;DHT22;18610;49.916;8.284;2024-02-28T13:48:16;18.50;61.30
32097;DHT22;18610;49.916;8.284;2024-02-28T13:50:45;18.60;61.40
32097;DHT22;18610;49.916;8.284;2024-02-28T13:53:12;18.80;62.40
32097;DHT22;18610;49.916;8.284;2024-02-28T13:55:39;19.00;62.70
32097;DHT22;18610;49.916;8.284;2024-02-28T13:58:06;19.30;61.00
32097;DHT22;18610;49.916;8.284;2024-02-28T14:00:33;19.70;59.10
32097;DHT22;18610;49.916;8.284;2024-02-28T14:03:00;19.60;58.30
32097;DHT22;18610;49.916;8.284;2024-02-28T14:05:27;19.60;58.40
32097;DHT22;18610;49.916;8.284;2024-02-28T14:07:56;19.60;58.40
32097;DHT22;18610;49.916;8.284;2024-02-28T14:10:23;19.50;58.50
32097;DHT22;18610;49.916;8.284;2024-02-28T14:12:50;19.20;58.30
32097;DHT22;18610;49.916;8.284;2024-02-28T14:15:18;19.00;58.50
32097;DHT22;18610;49.916;8.284;2024-02-28T14:17:45;18.90;58.60
32097;DHT22;18610;49.916;8.284;2024-02-28T14:20:12;18.70;57.30
32097;DHT22;18610;49.916;8.284;2024-02-28T14:22:39;18.30;57.30
32097;DHT22;18610;49.916;8.284;2024-02-28T14:25:11;17.90;59.00
32097;DHT22;18610;49.916;8.284;2024-02-28T14:27:38;17.60;60.60
32097;DHT22;18610;49.916;8.284;2024-02-28T14:30:06;17.50;61.10
32097;DHT22;18610;49.916;8.284;2024-02-28T14:32:34;17.40;62.20
32097;DHT22;18610;49.916;8.284;2024-02-28T14:35:01;17.40;61.90
32097;DHT22;18610;49.916;8.284;2024-02-28T14:37:27;17.50;60.20
32097;DHT22;18610;49.916;8.284;2024-02-28T14:39:55;17.40;61.30
32097;DHT22;18610;49.916;8.284;2024-02-28T14:42:23;17.60;62.40
32097;DHT22;18610;49.916;8.284;2024-02-28T14:44:50;17.90;59.10
32097;DHT22;18610;49.916;8.284;2024-02-28T14:47:16;18.20;58.60
32097;DHT22;18610;49.916;8.284;2024-02-28T14:49:43;18.30;58.70
32097;DHT22;18610;49.916;8.284;2024-02-28T14:52:10;18.40;58.50
32097;DHT22;18610;49.916;8.284;2024-02-28T14:54:36;18.40;57.60
32097;DHT22;18610;49.916;8.284;2024-02-28T14:57:04;18.40;57.60
32097;DHT22;18610;49.916;8.284;2024-02-28T14:59:32;18.30;55.10
32097;DHT22;18610;49.916;8.284;2024-02-28T15:01:59;18.30;54.90
32097;DHT22;18610;49.916;8.284;2024-02-28T15:04:26;18.20;55.90
32097;DHT22;18610;49.916;8.284;2024-02-28T15:06:53;18.10;56.20
32097;DHT22;18610;49.916;8.284;2024-02-28T15:09:19;18.10;56.40
32097;DHT22;18610;49.916;8.284;2024-02-28T15:11:46;18.10;56.40
32097;DHT22;18610;49.916;8.284;2024-02-28T15:14:13;18.10;56.00
32097;DHT22;18610;49.916;8.284;2024-02-28T15:16:41;18.00;56.80
32097;DHT22;18610;49.916;8.284;2024-02-28T15:19:08;17.90;57.20
32097;DHT22;18610;49.916;8.284;2024-02-28T15:21:34;17.70;56.10
32097;DHT22;18610;49.916;8.284;2024-02-28T15:24:02;17.60;54.40
32097;DHT22;18610;49.916;8.284;2024-02-28T15:26:29;17.60;55.20
32097;DHT22;18610;49.916;8.284;2024-02-28T15:28:56;17.60;53.90
32097;DHT22;18610;49.916;8.284;2024-02-28T15:31:22;17.50;55.10
32097;DHT22;18610;49.916;8.284;2024-02-28T15:33:50;17.50;57.30
32097;DHT22;18610;49.916;8.284;2024-02-28T15:36:17;17.50;58.30
32097;DHT22;18610;49.916;8.284;2024-02-28T15:38:44;17.30;58.70
32097;DHT22;18610;49.916;8.284;2024-02-28T15:41:10;17.00;59.90